sensor_id;sensor_type;location;lat;lon;timestamp;temperature;humidity
52495;DHT22;38405;53.212;5.660;2023-02-11T00:00:09;5.90;99.90
52495;DHT22;38405;53.212;5.660;2023-02-11T00:02:35;6.00;99.90
52495;DHT22;38405;53.212;5.660;2023-02-11T00:05:01;6.00;99.90
52495;DHT22;38405;53.212;5.660;2023-02-11T00:07:31;6.10;99.90
52495;DHT22;38405;53.212;5.660;2023-02-11T00:09:56;6.10;99.90
52495;DHT22;38405;53.212;5.660;2023-02-11T00:12:22;6.20;99.90
52495;DHT22;38405;53.212;5.660;2023-02-11T00:14:48;6.50;99.90
52495;DHT22;38405;53.212;5.660;2023-02-11T00:17:13;6.20;99.90
52495;DHT22;38405;53.212;5.660;2023-02-11T00:19:39;6.10;99.90
52495;DHT22;38405;53.212;5.660;2023-02-11T00:22:05;6.10;99.90
52495;DHT22;38405;53.212;5.660;2023-02-11T00:24:31;6.20;99.90
52495;DHT22;38405;53.212;5.660;2023-02-11T00:26:59;6.20;99.90
52495;DHT22;38405;53.212;5.660;2023-02-11T00:29:25;6.10;99.90
52495;DHT22;38405;53.212;5.660;2023-02-11T00:31:51;6.20;99.90
52495;DHT22;38405;53.212;5.660;2023-02-11T00:34:16;6.30;99.90
52495;DHT22;38405;53.212;5.660;2023-02-11T00:36:42;6.20;99.90
52495;DHT22;38405;53.212;5.660;2023-02-11T00:39:07;6.30;99.90
52495;DHT22;38405;53.212;5.660;2023-02-11T00:41:36;6.30;99.90
52495;DHT22;38405;53.212;5.660;2023-02-11T00:44:02;6.60;99.90
52495;DHT22;38405;53.212;5.660;2023-02-11T00:46:28;6.50;99.90
52495;DHT22;38405;53.212;5.660;2023-02-11T00:48:53;6.50;99.90
52495;DHT22;38405;53.212;5.660;2023-02-11T00:51:26;6.50;99.90
52495;DHT22;38405;53.212;5.660;2023-02-11T00:53:52;6.60;99.90
52495;DHT22;38405;53.212;5.660;2023-02-11T00:56:18;6.60;99.90
52495;DHT22;38405;53.212;5.660;2023-02-11T00:58:44;6.70;99.90
52495;DHT22;38405;53.212;5.660;2023-02-11T01:01:10;6.70;99.90
52495;DHT22;38405;53.212;5.660;2023-02-11T01:03:37;6.80;99.90
52495;DHT22;38405;53.212;5.660;2023-02-11T01:06:03;6.80;99.90
52495;DHT22;38405;53.212;5.660;2023-02-11T01:08:29;6.80;99.90
52495;DHT22;38405;53.212;5.660;2023-02-11T01:11:00;7.10;99.90
52495;DHT22;38405;53.212;5.660;2023-02-11T01:13:27;7.00;99.90
52495;DHT22;38405;53.212;5.660;2023-02-11T01:15:53;7.00;99.90
52495;DHT22;38405;53.212;5.660;2023-02-11T01:18:19;7.20;99.90
52495;DHT22;38405;53.212;5.660;2023-02-11T01:20:45;7.10;99.90
52495;DHT22;38405;53.212;5.660;2023-02-11T01:23:10;7.10;99.90
52495;DHT22;38405;53.212;5.660;2023-02-11T01:25:36;7.10;99.90
52495;DHT22;38405;53.212;5.660;2023-02-11T01:28:02;7.10;99.90
52495;DHT22;38405;53.212;5.660;2023-02-11T01:30:27;7.10;99.90
52495;DHT22;38405;53.212;5.660;2023-02-11T01:32:53;7.50;99.90
52495;DHT22;38405;53.212;5.660;2023-02-11T01:35:19;7.20;99.90
52495;DHT22;38405;53.212;5.660;2023-02-11T01:37:44;7.10;99.90
52495;DHT22;38405;53.212;5.660;2023-02-11T01:40:13;7.20;99.90
52495;DHT22;38405;53.212;5.660;2023-02-11T01:42:39;7.10;99.90
52495;DHT22;38405;53.212;5.660;2023-02-11T01:48:25;7.20;99.90
52495;DHT22;38405;53.212;5.660;2023-02-11T01:50:56;7.30;99.90
52495;DHT22;38405;53.212;5.660;2023-02-11T01:53:23;7.30;99.90
52495;DHT22;38405;53.212;5.660;2023-02-11T01:56:26;7.30;99.90
52495;DHT22;38405;53.212;5.660;2023-02-11T01:59:16;7.10;99.90
52495;DHT22;38405;53.212;5.660;2023-02-11T02:01:47;7.10;99.90
52495;DHT22;38405;53.212;5.660;2023-02-11T02:04:17;7.30;99.90
52495;DHT22;38405;53.212;5.660;2023-02-11T02:06:51;7.10;99.90
52495;DHT22;38405;53.212;5.660;2023-02-11T02:09:25;7.20;99.90
52495;DHT22;38405;53.212;5.660;2023-02-11T02:11:56;7.40;99.90
52495;DHT22;38405;53.212;5.660;2023-02-11T02:14:21;7.20;99.90
52495;DHT22;38405;53.212;5.660;2023-02-11T02:16:47;7.20;99.90
52495;DHT22;38405;53.212;5.660;2023-02-11T02:33:24;7.20;99.90
52495;DHT22;38405;53.212;5.660;2023-02-11T02:39:34;7.20;99.90
52495;DHT22;38405;53.212;5.660;2023-02-11T02:41:59;7.20;99.90
52495;DHT22;38405;53.212;5.660;2023-02-11T02:44:25;7.20;99.90
52495;DHT22;38405;53.212;5.660;2023-02-11T02:46:51;7.30;99.90
52495;DHT22;38405;53.212;5.660;2023-02-11T02:49:17;7.30;99.90
52495;DHT22;38405;53.212;5.660;2023-02-11T02:52:03;7.30;99.90
52495;DHT22;38405;53.212;5.660;2023-02-11T03:00:20;7.40;99.90
52495;DHT22;38405;53.212;5.660;2023-02-11T03:09:00;7.40;99.90
52495;DHT22;38405;53.212;5.660;2023-02-11T03:11:28;7.30;99.90
52495;DHT22;38405;53.212;5.660;2023-02-11T03:13:54;7.50;99.90
52495;DHT22;38405;53.212;5.660;2023-02-11T03:16:24;7.40;99.90
52495;DHT22;38405;53.212;5.660;2023-02-11T03:18:56;7.40;99.90
52495;DHT22;38405;53.212;5.660;2023-02-11T03:21:23;7.30;99.90
52495;DHT22;38405;53.212;5.660;2023-02-11T03:23:53;7.30;99.90
52495;DHT22;38405;53.212;5.660;2023-02-11T03:29:00;7.40;99.90
52495;DHT22;38405;53.212;5.660;2023-02-11T03:37:18;7.40;99.90
52495;DHT22;38405;53.212;5.660;2023-02-11T03:40:09;7.40;99.90
52495;DHT22;38405;53.212;5.660;2023-02-11T03:42:46;7.40;99.90
52495;DHT22;38405;53.212;5.660;2023-02-11T03:45:19;7.40;99.90
52495;DHT22;38405;53.212;5.660;2023-02-11T03:47:50;7.40;99.90
52495;DHT22;38405;53.212;5.660;2023-02-11T03:50:21;7.30;99.90
52495;DHT22;38405;53.212;5.660;2023-02-11T03:52:48;7.30;99.90
52495;DHT22;38405;53.212;5.660;2023-02-11T03:55:17;7.30;99.90
52495;DHT22;38405;53.212;5.660;2023-02-11T03:57:43;7.40;99.90
52495;DHT22;38405;53.212;5.660;2023-02-11T04:00:10;7.40;99.90
52495;DHT22;38405;53.212;5.660;2023-02-11T04:02:36;7.40;99.90
52495;DHT22;38405;53.212;5.660;2023-02-11T04:05:04;7.40;99.90
52495;DHT22;38405;53.212;5.660;2023-02-11T04:07:31;7.40;99.90
52495;DHT22;38405;53.212;5.660;2023-02-11T04:09:57;7.50;99.90
52495;DHT22;38405;53.212;5.660;2023-02-11T04:12:23;7.40;99.90
52495;DHT22;38405;53.212;5.660;2023-02-11T04:14:48;7.60;99.90
52495;DHT22;38405;53.212;5.660;2023-02-11T04:17:14;7.50;99.90
52495;DHT22;38405;53.212;5.660;2023-02-11T04:19:40;7.60;99.90
52495;DHT22;38405;53.212;5.660;2023-02-11T04:22:06;7.50;99.90
52495;DHT22;38405;53.212;5.660;2023-02-11T04:24:31;7.40;99.90
52495;DHT22;38405;53.212;5.660;2023-02-11T04:27:00;7.50;99.90
52495;DHT22;38405;53.212;5.660;2023-02-11T04:29:28;7.50;99.90
52495;DHT22;38405;53.212;5.660;2023-02-11T04:31:54;7.50;99.90
52495;DHT22;38405;53.212;5.660;2023-02-11T04:34:20;7.50;99.90
52495;DHT22;38405;53.212;5.660;2023-02-11T04:36:45;7.60;99.90
52495;DHT22;38405;53.212;5.660;2023-02-11T04:39:11;7.80;99.90
52495;DHT22;38405;53.212;5.660;2023-02-11T04:41:37;7.60;99.90
52495;DHT22;38405;53.212;5.660;2023-02-11T04:44:03;7.60;99.90
52495;DHT22;38405;53.212;5.660;2023-02-11T04:46:29;7.60;99.90
52495;DHT22;38405;53.212;5.660;2023-02-11T04:48:55;7.60;99.90
52495;DHT22;38405;53.212;5.660;2023-02-11T04:51:24;7.70;99.90
52495;DHT22;38405;53.212;5.660;2023-02-11T04:53:50;7.60;99.90
52495;DHT22;38405;53.212;5.660;2023-02-11T04:56:15;7.60;99.90
52495;DHT22;38405;53.212;5.660;2023-02-11T04:58:41;7.60;99.90
52495;DHT22;38405;53.212;5.660;2023-02-11T05:01:08;7.60;99.90
52495;DHT22;38405;53.212;5.660;2023-02-11T05:03:34;7.80;99.90
52495;DHT22;38405;53.212;5.660;2023-02-11T05:06:00;7.70;99.90
52495;DHT22;38405;53.212;5.660;2023-02-11T05:08:26;7.70;99.90
52495;DHT22;38405;53.212;5.660;2023-02-11T05:10:54;7.70;99.90
52495;DHT22;38405;53.212;5.660;2023-02-11T05:13:20;7.70;99.90
52495;DHT22;38405;53.212;5.660;2023-02-11T05:15:45;7.70;99.90
52495;DHT22;38405;53.212;5.660;2023-02-11T05:18:11;7.90;99.90
52495;DHT22;38405;53.212;5.660;2023-02-11T05:20:42;7.80;99.90
52495;DHT22;38405;53.212;5.660;2023-02-11T05:23:09;7.70;99.90
52495;DHT22;38405;53.212;5.660;2023-02-11T05:25:35;7.70;99.90
52495;DHT22;38405;53.212;5.660;2023-02-11T05:28:00;7.80;99.90
52495;DHT22;38405;53.212;5.660;2023-02-11T05:30:26;7.90;99.90
52495;DHT22;38405;53.212;5.660;2023-02-11T05:32:52;7.60;99.90
52495;DHT22;38405;53.212;5.660;2023-02-11T05:35:18;7.60;99.90
52495;DHT22;38405;53.212;5.660;2023-02-11T05:37:43;7.60;99.90
52495;DHT22;38405;53.212;5.660;2023-02-11T05:40:10;7.50;99.90
52495;DHT22;38405;53.212;5.660;2023-02-11T05:42:35;7.50;99.90
52495;DHT22;38405;53.212;5.660;2023-02-11T05:45:01;7.40;99.90
52495;DHT22;38405;53.212;5.660;2023-02-11T05:47:27;7.30;99.90
52495;DHT22;38405;53.212;5.660;2023-02-11T05:49:52;7.20;99.90
52495;DHT22;38405;53.212;5.660;2023-02-11T05:52:22;7.10;99.90
52495;DHT22;38405;53.212;5.660;2023-02-11T05:54:48;7.10;99.90
52495;DHT22;38405;53.212;5.660;2023-02-11T05:57:14;7.20;99.90
52495;DHT22;38405;53.212;5.660;2023-02-11T05:59:40;7.00;99.90
52495;DHT22;38405;53.212;5.660;2023-02-11T06:02:07;7.00;99.90
52495;DHT22;38405;53.212;5.660;2023-02-11T06:04:33;7.20;99.90
52495;DHT22;38405;53.212;5.660;2023-02-11T06:06:59;7.20;99.90
52495;DHT22;38405;53.212;5.660;2023-02-11T06:09:25;6.90;99.90
52495;DHT22;38405;53.212;5.660;2023-02-11T06:11:51;6.90;99.90
52495;DHT22;38405;53.212;5.660;2023-02-11T06:14:17;7.10;99.90
52495;DHT22;38405;53.212;5.660;2023-02-11T06:16:42;6.90;99.90
52495;DHT22;38405;53.212;5.660;2023-02-11T06:19:08;6.90;99.90
52495;DHT22;38405;53.212;5.660;2023-02-11T06:21:34;6.80;99.90
52495;DHT22;38405;53.212;5.660;2023-02-11T06:23:59;6.90;99.90
52495;DHT22;38405;53.212;5.660;2023-02-11T06:26:25;6.90;99.90
52495;DHT22;38405;53.212;5.660;2023-02-11T06:28:51;7.00;99.90
52495;DHT22;38405;53.212;5.660;2023-02-11T06:31:16;7.00;99.90
52495;DHT22;38405;53.212;5.660;2023-02-11T06:33:42;7.10;99.90
52495;DHT22;38405;53.212;5.660;2023-02-11T06:36:17;7.10;99.90
52495;DHT22;38405;53.212;5.660;2023-02-11T06:38:43;7.20;99.90
52495;DHT22;38405;53.212;5.660;2023-02-11T06:41:14;7.20;99.90
52495;DHT22;38405;53.212;5.660;2023-02-11T06:43:43;7.20;99.90
52495;DHT22;38405;53.212;5.660;2023-02-11T06:46:09;7.20;99.90
52495;DHT22;38405;53.212;5.660;2023-02-11T06:48:35;7.20;99.90
52495;DHT22;38405;53.212;5.660;2023-02-11T06:51:06;7.10;99.90
52495;DHT22;38405;53.212;5.660;2023-02-11T06:53:35;7.10;99.90
52495;DHT22;38405;53.212;5.660;2023-02-11T06:56:06;7.10;99.90
52495;DHT22;38405;53.212;5.660;2023-02-11T06:58:32;7.10;99.90
52495;DHT22;38405;53.212;5.660;2023-02-11T07:00:58;7.10;99.90
52495;DHT22;38405;53.212;5.660;2023-02-11T07:03:24;7.00;99.90
52495;DHT22;38405;53.212;5.660;2023-02-11T07:05:53;7.00;99.90
52495;DHT22;38405;53.212;5.660;2023-02-11T07:08:19;6.90;99.90
52495;DHT22;38405;53.212;5.660;2023-02-11T07:10:44;6.90;99.90
52495;DHT22;38405;53.212;5.660;2023-02-11T07:13:10;7.10;99.90
52495;DHT22;38405;53.212;5.660;2023-02-11T07:15:36;6.90;99.90
52495;DHT22;38405;53.212;5.660;2023-02-11T07:18:02;6.90;99.90
52495;DHT22;38405;53.212;5.660;2023-02-11T07:20:28;6.90;99.90
52495;DHT22;38405;53.212;5.660;2023-02-11T07:22:54;6.80;99.90
52495;DHT22;38405;53.212;5.660;2023-02-11T07:25:20;6.90;99.90
52495;DHT22;38405;53.212;5.660;2023-02-11T07:27:48;6.80;99.90
52495;DHT22;38405;53.212;5.660;2023-02-11T07:30:14;6.90;99.90
52495;DHT22;38405;53.212;5.660;2023-02-11T07:32:40;6.90;99.90
52495;DHT22;38405;53.212;5.660;2023-02-11T07:35:05;7.40;99.90
52495;DHT22;38405;53.212;5.660;2023-02-11T07:37:33;6.90;99.90
52495;DHT22;38405;53.212;5.660;2023-02-11T07:39:59;6.90;99.90
52495;DHT22;38405;53.212;5.660;2023-02-11T07:42:25;6.90;99.90
52495;DHT22;38405;53.212;5.660;2023-02-11T07:44:53;6.90;99.90
52495;DHT22;38405;53.212;5.660;2023-02-11T07:47:19;7.40;99.90
52495;DHT22;38405;53.212;5.660;2023-02-11T07:49:47;7.00;99.90
52495;DHT22;38405;53.212;5.660;2023-02-11T07:52:12;7.10;99.90
52495;DHT22;38405;53.212;5.660;2023-02-11T07:54:38;7.10;99.90
52495;DHT22;38405;53.212;5.660;2023-02-11T07:57:04;7.20;99.90
52495;DHT22;38405;53.212;5.660;2023-02-11T07:59:30;7.30;99.90
52495;DHT22;38405;53.212;5.660;2023-02-11T08:01:55;7.30;99.90
52495;DHT22;38405;53.212;5.660;2023-02-11T08:04:21;7.30;99.90
52495;DHT22;38405;53.212;5.660;2023-02-11T08:06:46;7.50;99.90
52495;DHT22;38405;53.212;5.660;2023-02-11T08:09:15;7.40;99.90
52495;DHT22;38405;53.212;5.660;2023-02-11T08:11:41;7.40;99.90
52495;DHT22;38405;53.212;5.660;2023-02-11T08:14:08;7.50;99.90
52495;DHT22;38405;53.212;5.660;2023-02-11T08:16:35;7.50;99.90
52495;DHT22;38405;53.212;5.660;2023-02-11T08:19:04;7.50;99.90
52495;DHT22;38405;53.212;5.660;2023-02-11T08:21:30;7.60;99.90
52495;DHT22;38405;53.212;5.660;2023-02-11T08:23:56;7.70;99.90
52495;DHT22;38405;53.212;5.660;2023-02-11T08:26:26;7.80;99.90
52495;DHT22;38405;53.212;5.660;2023-02-11T08:28:55;8.10;99.90
52495;DHT22;38405;53.212;5.660;2023-02-11T08:31:30;8.20;99.90
52495;DHT22;38405;53.212;5.660;2023-02-11T08:33:57;8.50;99.90
52495;DHT22;38405;53.212;5.660;2023-02-11T08:36:25;8.80;99.90
52495;DHT22;38405;53.212;5.660;2023-02-11T08:38:53;9.00;99.90
52495;DHT22;38405;53.212;5.660;2023-02-11T08:41:19;8.90;99.90
52495;DHT22;38405;53.212;5.660;2023-02-11T08:43:45;9.10;99.90
52495;DHT22;38405;53.212;5.660;2023-02-11T08:46:13;8.90;99.90
52495;DHT22;38405;53.212;5.660;2023-02-11T08:48:38;8.70;99.90
52495;DHT22;38405;53.212;5.660;2023-02-11T08:51:09;8.70;99.90
52495;DHT22;38405;53.212;5.660;2023-02-11T08:53:35;8.60;99.90
52495;DHT22;38405;53.212;5.660;2023-02-11T08:56:01;8.70;99.90
52495;DHT22;38405;53.212;5.660;2023-02-11T08:58:27;8.70;99.90
52495;DHT22;38405;53.212;5.660;2023-02-11T09:00:53;8.70;99.90
52495;DHT22;38405;53.212;5.660;2023-02-11T09:03:18;8.20;99.90
52495;DHT22;38405;53.212;5.660;2023-02-11T09:05:46;8.80;99.90
52495;DHT22;38405;53.212;5.660;2023-02-11T09:08:15;8.80;99.90
52495;DHT22;38405;53.212;5.660;2023-02-11T09:10:41;8.80;99.90
52495;DHT22;38405;53.212;5.660;2023-02-11T09:13:08;8.80;99.90
52495;DHT22;38405;53.212;5.660;2023-02-11T09:15:34;8.90;99.90
52495;DHT22;38405;53.212;5.660;2023-02-11T09:18:00;8.80;99.90
52495;DHT22;38405;53.212;5.660;2023-02-11T09:20:26;8.80;99.90
52495;DHT22;38405;53.212;5.660;2023-02-11T09:22:53;8.80;99.90
52495;DHT22;38405;53.212;5.660;2023-02-11T09:25:21;8.80;99.90
52495;DHT22;38405;53.212;5.660;2023-02-11T09:27:46;8.90;99.90
52495;DHT22;38405;53.212;5.660;2023-02-11T09:30:12;8.80;99.90
52495;DHT22;38405;53.212;5.660;2023-02-11T09:32:38;8.80;99.90
52495;DHT22;38405;53.212;5.660;2023-02-11T09:35:04;9.00;99.90
52495;DHT22;38405;53.212;5.660;2023-02-11T09:37:29;8.90;99.90
52495;DHT22;38405;53.212;5.660;2023-02-11T09:39:55;8.90;99.90
52495;DHT22;38405;53.212;5.660;2023-02-11T09:45:05;8.90;99.90
52495;DHT22;38405;53.212;5.660;2023-02-11T09:47:41;8.90;99.90
52495;DHT22;38405;53.212;5.660;2023-02-11T09:50:12;9.00;99.90
52495;DHT22;38405;53.212;5.660;2023-02-11T09:55:24;9.10;99.90
52495;DHT22;38405;53.212;5.660;2023-02-11T09:57:51;9.10;99.90
52495;DHT22;38405;53.212;5.660;2023-02-11T10:06:36;9.30;99.90
52495;DHT22;38405;53.212;5.660;2023-02-11T10:20:27;9.50;99.90
52495;DHT22;38405;53.212;5.660;2023-02-11T10:23:00;9.50;99.90
52495;DHT22;38405;53.212;5.660;2023-02-11T10:25:38;9.50;99.90
52495;DHT22;38405;53.212;5.660;2023-02-11T10:28:18;9.50;99.90
52495;DHT22;38405;53.212;5.660;2023-02-11T10:31:00;9.60;99.90
52495;DHT22;38405;53.212;5.660;2023-02-11T10:33:58;9.60;99.90
52495;DHT22;38405;53.212;5.660;2023-02-11T10:36:30;9.60;99.90
52495;DHT22;38405;53.212;5.660;2023-02-11T10:39:18;9.50;99.90
52495;DHT22;38405;53.212;5.660;2023-02-11T10:41:46;9.50;99.90
52495;DHT22;38405;53.212;5.660;2023-02-11T10:46:48;9.60;99.90
52495;DHT22;38405;53.212;5.660;2023-02-11T10:52:22;10.10;99.90
52495;DHT22;38405;53.212;5.660;2023-02-11T10:57:37;10.60;99.90
52495;DHT22;38405;53.212;5.660;2023-02-11T11:00:26;10.70;99.90
52495;DHT22;38405;53.212;5.660;2023-02-11T11:02:58;10.90;99.90
52495;DHT22;38405;53.212;5.660;2023-02-11T11:05:47;11.10;99.90
52495;DHT22;38405;53.212;5.660;2023-02-11T11:08:13;11.20;99.90
52495;DHT22;38405;53.212;5.660;2023-02-11T11:10:46;11.40;99.90
52495;DHT22;38405;53.212;5.660;2023-02-11T11:13:25;11.40;99.90
52495;DHT22;38405;53.212;5.660;2023-02-11T11:18:45;11.70;99.90
52495;DHT22;38405;53.212;5.660;2023-02-11T11:21:34;11.70;99.90
52495;DHT22;38405;53.212;5.660;2023-02-11T11:24:02;11.70;99.90
52495;DHT22;38405;53.212;5.660;2023-02-11T11:26:40;11.60;99.90
52495;DHT22;38405;53.212;5.660;2023-02-11T11:29:32;11.70;99.90
52495;DHT22;38405;53.212;5.660;2023-02-11T11:32:09;11.70;99.90
52495;DHT22;38405;53.212;5.660;2023-02-11T11:34:37;11.80;99.90
52495;DHT22;38405;53.212;5.660;2023-02-11T11:37:12;11.80;99.90
52495;DHT22;38405;53.212;5.660;2023-02-11T11:39:38;11.80;99.90
52495;DHT22;38405;53.212;5.660;2023-02-11T11:42:20;11.80;99.90
52495;DHT22;38405;53.212;5.660;2023-02-11T11:44:56;11.90;99.90
52495;DHT22;38405;53.212;5.660;2023-02-11T11:55:08;12.10;99.90
52495;DHT22;38405;53.212;5.660;2023-02-11T11:57:37;12.10;99.90
52495;DHT22;38405;53.212;5.660;2023-02-11T12:00:04;12.10;99.90
52495;DHT22;38405;53.212;5.660;2023-02-11T12:02:53;12.20;99.90
52495;DHT22;38405;53.212;5.660;2023-02-11T12:05:28;12.30;99.90
52495;DHT22;38405;53.212;5.660;2023-02-11T12:13:52;12.50;99.90
52495;DHT22;38405;53.212;5.660;2023-02-11T12:16:31;12.50;99.90
52495;DHT22;38405;53.212;5.660;2023-02-11T12:27:17;12.40;99.90
52495;DHT22;38405;53.212;5.660;2023-02-11T12:32:54;12.10;99.90
52495;DHT22;38405;53.212;5.660;2023-02-11T12:36:01;12.00;99.90
52495;DHT22;38405;53.212;5.660;2023-02-11T12:50:48;11.40;99.90
52495;DHT22;38405;53.212;5.660;2023-02-11T12:56:02;11.30;99.90
52495;DHT22;38405;53.212;5.660;2023-02-11T12:58:31;11.20;99.90
52495;DHT22;38405;53.212;5.660;2023-02-11T13:01:24;11.20;99.90
52495;DHT22;38405;53.212;5.660;2023-02-11T13:03:50;11.20;99.90
52495;DHT22;38405;53.212;5.660;2023-02-11T13:06:24;11.20;99.90
52495;DHT22;38405;53.212;5.660;2023-02-11T13:08:54;11.20;99.90
52495;DHT22;38405;53.212;5.660;2023-02-11T13:11:29;11.20;99.90
52495;DHT22;38405;53.212;5.660;2023-02-11T13:14:25;11.30;99.90
52495;DHT22;38405;53.212;5.660;2023-02-11T13:16:49;11.40;99.90
52495;DHT22;38405;53.212;5.660;2023-02-11T13:19:38;11.40;99.90
52495;DHT22;38405;53.212;5.660;2023-02-11T13:22:30;11.30;99.90
52495;DHT22;38405;53.212;5.660;2023-02-11T13:27:47;11.20;99.90
52495;DHT22;38405;53.212;5.660;2023-02-11T13:30:29;11.20;99.90
52495;DHT22;38405;53.212;5.660;2023-02-11T13:35:34;11.10;99.90
52495;DHT22;38405;53.212;5.660;2023-02-11T13:38:21;11.00;99.90
52495;DHT22;38405;53.212;5.660;2023-02-11T13:41:25;11.00;99.90
52495;DHT22;38405;53.212;5.660;2023-02-11T13:46:26;10.70;99.90
52495;DHT22;38405;53.212;5.660;2023-02-11T13:48:54;10.50;99.90
52495;DHT22;38405;53.212;5.660;2023-02-11T13:51:52;10.40;99.90
52495;DHT22;38405;53.212;5.660;2023-02-11T13:54:39;10.30;99.90
52495;DHT22;38405;53.212;5.660;2023-02-11T14:02:36;10.60;99.90
52495;DHT22;38405;53.212;5.660;2023-02-11T14:05:29;10.30;99.90
52495;DHT22;38405;53.212;5.660;2023-02-11T14:16:18;10.60;99.90
52495;DHT22;38405;53.212;5.660;2023-02-11T14:21:19;10.50;99.90
52495;DHT22;38405;53.212;5.660;2023-02-11T14:23:51;10.50;99.90
52495;DHT22;38405;53.212;5.660;2023-02-11T14:28:53;10.40;99.90
52495;DHT22;38405;53.212;5.660;2023-02-11T14:31:33;10.40;99.90
52495;DHT22;38405;53.212;5.660;2023-02-11T14:39:40;10.20;99.90
52495;DHT22;38405;53.212;5.660;2023-02-11T14:42:18;10.20;99.90
52495;DHT22;38405;53.212;5.660;2023-02-11T14:44:48;10.20;99.90
52495;DHT22;38405;53.212;5.660;2023-02-11T14:47:18;10.00;99.90
52495;DHT22;38405;53.212;5.660;2023-02-11T14:49:46;10.00;99.90
52495;DHT22;38405;53.212;5.660;2023-02-11T14:54:48;9.90;99.90
52495;DHT22;38405;53.212;5.660;2023-02-11T14:57:19;9.80;99.90
52495;DHT22;38405;53.212;5.660;2023-02-11T15:00:05;9.70;99.90
52495;DHT22;38405;53.212;5.660;2023-02-11T15:02:34;9.60;99.90
52495;DHT22;38405;53.212;5.660;2023-02-11T15:07:53;9.40;99.90
52495;DHT22;38405;53.212;5.660;2023-02-11T15:13:03;9.30;99.90
52495;DHT22;38405;53.212;5.660;2023-02-11T15:15:30;9.30;99.90
52495;DHT22;38405;53.212;5.660;2023-02-11T15:17:59;9.40;99.90
52495;DHT22;38405;53.212;5.660;2023-02-11T15:20:27;9.30;99.90
52495;DHT22;38405;53.212;5.660;2023-02-11T15:23:07;9.40;99.90
52495;DHT22;38405;53.212;5.660;2023-02-11T15:25:33;9.30;99.90
52495;DHT22;38405;53.212;5.660;2023-02-11T15:28:18;9.20;99.90
52495;DHT22;38405;53.212;5.660;2023-02-11T15:30:45;9.10;99.90
52495;DHT22;38405;53.212;5.660;2023-02-11T15:33:21;9.10;99.90
52495;DHT22;38405;53.212;5.660;2023-02-11T15:35:47;9.00;99.90
52495;DHT22;38405;53.212;5.660;2023-02-11T15:38:13;9.10;99.90
52495;DHT22;38405;53.212;5.660;2023-02-11T15:40:51;9.10;99.90
52495;DHT22;38405;53.212;5.660;2023-02-11T15:43:17;8.70;99.90
52495;DHT22;38405;53.212;5.660;2023-02-11T15:46:00;8.60;99.90
52495;DHT22;38405;53.212;5.660;2023-02-11T15:51:17;8.40;99.90
52495;DHT22;38405;53.212;5.660;2023-02-11T15:53:49;8.30;99.90
52495;DHT22;38405;53.212;5.660;2023-02-11T15:56:38;8.20;99.90
52495;DHT22;38405;53.212;5.660;2023-02-11T15:59:15;8.10;99.90
52495;DHT22;38405;53.212;5.660;2023-02-11T16:01:43;8.00;99.90
52495;DHT22;38405;53.212;5.660;2023-02-11T16:04:22;7.90;99.90
52495;DHT22;38405;53.212;5.660;2023-02-11T16:06:49;7.80;99.90
52495;DHT22;38405;53.212;5.660;2023-02-11T16:19:35;7.50;99.90
52495;DHT22;38405;53.212;5.660;2023-02-11T16:22:10;7.50;99.90
52495;DHT22;38405;53.212;5.660;2023-02-11T16:24:36;7.40;99.90
52495;DHT22;38405;53.212;5.660;2023-02-11T16:27:17;7.20;99.90
52495;DHT22;38405;53.212;5.660;2023-02-11T16:29:45;7.20;99.90
52495;DHT22;38405;53.212;5.660;2023-02-11T16:32:20;7.30;99.90
52495;DHT22;38405;53.212;5.660;2023-02-11T16:34:46;7.10;99.90
52495;DHT22;38405;53.212;5.660;2023-02-11T16:37:12;7.00;99.90
52495;DHT22;38405;53.212;5.660;2023-02-11T16:39:37;7.00;99.90
52495;DHT22;38405;53.212;5.660;2023-02-11T16:42:03;6.90;99.90
52495;DHT22;38405;53.212;5.660;2023-02-11T16:44:31;6.90;99.90
52495;DHT22;38405;53.212;5.660;2023-02-11T16:46:58;6.90;99.90
52495;DHT22;38405;53.212;5.660;2023-02-11T16:49:33;6.80;99.90
52495;DHT22;38405;53.212;5.660;2023-02-11T16:52:04;6.70;99.90
52495;DHT22;38405;53.212;5.660;2023-02-11T16:54:30;6.70;99.90
52495;DHT22;38405;53.212;5.660;2023-02-11T16:56:56;6.60;99.90
52495;DHT22;38405;53.212;5.660;2023-02-11T16:59:22;6.50;99.90
52495;DHT22;38405;53.212;5.660;2023-02-11T17:01:49;6.60;99.90
52495;DHT22;38405;53.212;5.660;2023-02-11T17:04:22;6.40;99.90
52495;DHT22;38405;53.212;5.660;2023-02-11T17:06:48;6.40;99.90
52495;DHT22;38405;53.212;5.660;2023-02-11T17:09:18;6.40;99.90
52495;DHT22;38405;53.212;5.660;2023-02-11T17:11:44;6.30;99.90
52495;DHT22;38405;53.212;5.660;2023-02-11T17:14:09;6.30;99.90
52495;DHT22;38405;53.212;5.660;2023-02-11T17:16:35;6.30;99.90
52495;DHT22;38405;53.212;5.660;2023-02-11T17:19:00;6.20;99.90
52495;DHT22;38405;53.212;5.660;2023-02-11T17:21:26;6.20;99.90
52495;DHT22;38405;53.212;5.660;2023-02-11T17:23:52;6.20;99.90
52495;DHT22;38405;53.212;5.660;2023-02-11T17:26:21;6.20;99.90
52495;DHT22;38405;53.212;5.660;2023-02-11T17:28:46;6.10;99.90
52495;DHT22;38405;53.212;5.660;2023-02-11T17:31:12;6.10;99.90
52495;DHT22;38405;53.212;5.660;2023-02-11T17:33:38;6.10;99.90
52495;DHT22;38405;53.212;5.660;2023-02-11T17:36:07;6.00;99.90
52495;DHT22;38405;53.212;5.660;2023-02-11T17:38:34;6.00;99.90
52495;DHT22;38405;53.212;5.660;2023-02-11T17:41:04;6.00;99.90
52495;DHT22;38405;53.212;5.660;2023-02-11T17:43:30;6.00;99.90
52495;DHT22;38405;53.212;5.660;2023-02-11T17:45:57;5.90;99.90
52495;DHT22;38405;53.212;5.660;2023-02-11T17:48:22;5.90;99.90
52495;DHT22;38405;53.212;5.660;2023-02-11T17:50:48;5.90;99.90
52495;DHT22;38405;53.212;5.660;2023-02-11T17:53:14;5.80;99.90
52495;DHT22;38405;53.212;5.660;2023-02-11T17:55:40;5.90;99.90
52495;DHT22;38405;53.212;5.660;2023-02-11T17:58:06;5.70;99.90
52495;DHT22;38405;53.212;5.660;2023-02-11T18:00:34;5.70;99.90
52495;DHT22;38405;53.212;5.660;2023-02-11T18:03:00;5.80;99.90
52495;DHT22;38405;53.212;5.660;2023-02-11T18:05:31;5.70;99.90
52495;DHT22;38405;53.212;5.660;2023-02-11T18:07:57;5.60;99.90
52495;DHT22;38405;53.212;5.660;2023-02-11T18:10:23;5.80;99.90
52495;DHT22;38405;53.212;5.660;2023-02-11T18:12:48;5.60;99.90
52495;DHT22;38405;53.212;5.660;2023-02-11T18:15:14;5.60;99.90
52495;DHT22;38405;53.212;5.660;2023-02-11T18:17:40;5.60;99.90
52495;DHT22;38405;53.212;5.660;2023-02-11T18:20:08;5.70;99.90
52495;DHT22;38405;53.212;5.660;2023-02-11T18:22:34;5.50;99.90
52495;DHT22;38405;53.212;5.660;2023-02-11T18:25:05;5.50;99.90
52495;DHT22;38405;53.212;5.660;2023-02-11T18:27:31;5.40;99.90
52495;DHT22;38405;53.212;5.660;2023-02-11T18:29:56;5.40;99.90
52495;DHT22;38405;53.212;5.660;2023-02-11T18:32:22;5.40;99.90
52495;DHT22;38405;53.212;5.660;2023-02-11T18:34:48;5.30;99.90
52495;DHT22;38405;53.212;5.660;2023-02-11T18:37:13;5.30;99.90
52495;DHT22;38405;53.212;5.660;2023-02-11T18:39:41;5.20;99.90
52495;DHT22;38405;53.212;5.660;2023-02-11T18:42:07;5.20;99.90
52495;DHT22;38405;53.212;5.660;2023-02-11T18:44:33;5.20;99.90